Time,TemperatureF,DewpointF,PressureIn,WindDirection,WindDirectionDegrees,WindSpeedMPH,WindSpeedGustMPH,Humidity,HourlyPrecipIn,Conditions,Clouds,dailyrainin,SolarRadiationWatts/m^2,SoftwareType,DateUTC
2013-06-11 00:00:00,56.0,54.0,-100.00,SE,135,0.0,-999.0,93,-99.99,,,-99.99,0.000000,,2013-06-11 05:00:00,
2013-06-11 00:32:00,56.0,54.0,-100.00,SE,135,0.0,-999.0,93,-99.99,,,-99.99,0.000000,,2013-06-11 05:32:00,
2013-06-11 00:42:00,56.0,54.0,-100.00,SE,135,0.0,-999.0,93,-99.99,,,-99.99,0.000000,,2013-06-11 05:42:00,
2013-06-11 00:52:00,56.0,54.0,-100.00,SE,135,0.0,-999.0,93,-99.99,,,-99.99,0.000000,,2013-06-11 05:52:00,
2013-06-11 01:00:00,54.0,52.0,-100.00,SSE,157,0.0,-999.0,94,-99.99,,,-99.99,0.000000,,2013-06-11 06:00:00,
2013-06-11 01:32:00,54.0,52.0,-100.00,SSE,157,0.0,-999.0,94,-99.99,,,-99.99,0.000000,,2013-06-11 06:32:00,
2013-06-11 01:42:00,54.0,52.0,-100.00,SSE,157,0.0,-999.0,94,-99.99,,,-99.99,0.000000,,2013-06-11 06:42:00,
2013-06-11 01:52:00,54.0,52.0,-100.00,SSE,157,0.0,-999.0,94,-99.99,,,-99.99,0.000000,,2013-06-11 06:52:00,
2013-06-11 02:00:00,52.0,51.0,-100.00,SSE,157,0.0,-999.0,95,-99.99,,,-99.99,0.000000,,2013-06-11 07:00:00,
2013-06-11 02:32:00,52.0,51.0,-100.00,SSE,157,0.0,-999.0,95,-99.99,,,-99.99,0.000000,,2013-06-11 07:32:00,
2013-06-11 02:42:00,52.0,51.0,-100.00,SSE,157,0.0,-999.0,95,-99.99,,,-99.99,0.000000,,2013-06-11 07:42:00,
2013-06-11 02:52:00,52.0,51.0,-100.00,SSE,157,0.0,-999.0,95,-99.99,,,-99.99,0.000000,,2013-06-11 07:52:00,
2013-06-11 03:00:00,51.0,50.0,-100.00,SSW,202,0.0,-999.0,95,-99.99,,,-99.99,0.000000,,2013-06-11 08:00:00,
2013-06-11 03:32:00,51.0,50.0,-100.00,SSW,202,0.0,-999.0,95,-99.99,,,-99.99,0.000000,,2013-06-11 08:32:00,
2013-06-11 03:42:00,51.0,50.0,-100.00,SSW,202,0.0,-999.0,95,-99.99,,,-99.99,0.000000,,2013-06-11 08:42:00,
2013-06-11 03:52:00,51.0,50.0,-100.00,SSW,202,0.0,-999.0,95,-99.99,,,-99.99,0.000000,,2013-06-11 08:52:00,
2013-06-11 04:00:00,50.0,48.0,-100.00,WSW,247,0.0,-999.0,95,-99.99,,,-99.99,0.000000,,2013-06-11 09:00:00,
2013-06-11 04:33:00,50.0,48.0,-100.00,WSW,247,0.0,-999.0,95,-99.99,,,-99.99,0.000000,,2013-06-11 09:33:00,
2013-06-11 04:43:00,50.0,48.0,-100.00,WSW,247,0.0,-999.0,95,-99.99,,,-99.99,0.000000,,2013-06-11 09:43:00,
2013-06-11 04:53:00,50.0,48.0,-100.00,WSW,247,0.0,-999.0,95,-99.99,,,-99.99,0.000000,,2013-06-11 09:53:00,
2013-06-11 05:00:00,50.0,48.0,-100.00,SSW,202,0.0,-999.0,96,-99.99,,,-99.99,1.160000,,2013-06-11 10:00:00,
2013-06-11 06:00:00,49.0,48.0,-100.00,SW,225,0.0,-999.0,96,-99.99,,,-99.99,11.600000,,2013-06-11 11:00:00,
2013-06-11 07:00:00,54.0,53.0,-100.00,SE,135,1.0,-999.0,96,-99.99,,,-99.99,136.880005,,2013-06-11 12:00:00,
2013-06-11 07:32:00,54.0,53.0,-100.00,SE,135,1.0,-999.0,96,-99.99,,,-99.99,136.880005,,2013-06-11 12:32:00,
2013-06-11 07:42:00,54.0,53.0,-100.00,SE,135,1.0,-999.0,96,-99.99,,,-99.99,136.880005,,2013-06-11 12:42:00,
2013-06-11 07:52:00,54.0,53.0,-100.00,SE,135,1.0,-999.0,96,-99.99,,,-99.99,136.880005,,2013-06-11 12:52:00,
2013-06-11 08:00:00,61.0,58.0,-100.00,South,180,1.0,-999.0,90,-99.99,,,-99.99,294.640015,,2013-06-11 13:00:00,
2013-06-11 08:32:00,61.0,58.0,-100.00,South,180,1.0,-999.0,90,-99.99,,,-99.99,294.640015,,2013-06-11 13:32:00,
2013-06-11 08:42:00,61.0,58.0,-100.00,South,180,1.0,-999.0,90,-99.99,,,-99.99,294.640015,,2013-06-11 13:42:00,
2013-06-11 08:52:00,61.0,58.0,-100.00,South,180,1.0,-999.0,90,-99.99,,,-99.99,294.640015,,2013-06-11 13:52:00,
2013-06-11 09:00:00,67.0,61.0,-100.00,WSW,247,2.0,-999.0,81,-99.99,,,-99.99,477.920013,,2013-06-11 14:00:00,
2013-06-11 09:32:00,67.0,61.0,-100.00,WSW,247,2.0,-999.0,81,-99.99,,,-99.99,477.920013,,2013-06-11 14:32:00,
2013-06-11 09:42:00,67.0,61.0,-100.00,WSW,247,2.0,-999.0,81,-99.99,,,-99.99,477.920013,,2013-06-11 14:42:00,
2013-06-11 09:53:00,67.0,61.0,-100.00,WSW,247,2.0,-999.0,81,-99.99,,,-99.99,477.920013,,2013-06-11 14:53:00,
2013-06-11 10:00:00,72.0,62.0,-100.00,WSW,247,3.0,-999.0,71,-99.99,,,-99.99,639.159973,,2013-06-11 15:00:00,
2013-06-11 10:33:00,72.0,62.0,-100.00,WSW,247,3.0,-999.0,71,-99.99,,,-99.99,639.159973,,2013-06-11 15:33:00,
2013-06-11 10:43:00,72.0,62.0,-100.00,WSW,247,3.0,-999.0,71,-99.99,,,-99.99,639.159973,,2013-06-11 15:43:00,
2013-06-11 10:53:00,72.0,62.0,-100.00,WSW,247,3.0,-999.0,71,-99.99,,,-99.99,639.159973,,2013-06-11 15:53:00,
2013-06-11 11:00:00,69.0,61.0,-100.00,WNW,292,3.0,-999.0,75,-99.99,,,-99.99,532.440002,,2013-06-11 16:00:00,
2013-06-11 11:33:00,69.0,61.0,-100.00,WNW,292,3.0,-999.0,75,-99.99,,,-99.99,532.440002,,2013-06-11 16:33:00,
2013-06-11 11:42:00,69.0,61.0,-100.00,WNW,292,3.0,-999.0,75,-99.99,,,-99.99,532.440002,,2013-06-11 16:42:00,
2013-06-11 11:52:00,69.0,61.0,-100.00,WNW,292,3.0,-999.0,75,-99.99,,,-99.99,532.440002,,2013-06-11 16:52:00,
2013-06-11 12:00:00,72.0,62.0,-100.00,West,270,3.0,-999.0,72,-99.99,,,-99.99,712.239990,,2013-06-11 17:00:00,
2013-06-11 12:32:00,72.0,62.0,-100.00,West,270,3.0,-999.0,72,-99.99,,,-99.99,712.239990,,2013-06-11 17:32:00,
2013-06-11 12:43:00,72.0,62.0,-100.00,West,270,3.0,-999.0,72,-99.99,,,-99.99,712.239990,,2013-06-11 17:43:00,
2013-06-11 12:52:00,72.0,62.0,-100.00,West,270,3.0,-999.0,72,-99.99,,,-99.99,712.239990,,2013-06-11 17:52:00,
2013-06-11 13:00:00,74.0,62.0,-100.00,West,270,3.0,-999.0,66,-99.99,,,-99.99,711.080017,,2013-06-11 18:00:00,
2013-06-11 13:33:00,74.0,62.0,-100.00,West,270,3.0,-999.0,66,-99.99,,,-99.99,711.080017,,2013-06-11 18:33:00,
2013-06-11 13:43:00,74.0,62.0,-100.00,West,270,3.0,-999.0,66,-99.99,,,-99.99,711.080017,,2013-06-11 18:43:00,
2013-06-11 13:52:00,74.0,62.0,-100.00,West,270,3.0,-999.0,66,-99.99,,,-99.99,711.080017,,2013-06-11 18:52:00,
2013-06-11 14:00:00,77.0,62.0,-100.00,West,270,4.0,-999.0,60,-99.99,,,-99.99,685.559998,,2013-06-11 19:00:00,
2013-06-11 14:33:00,77.0,62.0,-100.00,West,270,4.0,-999.0,60,-99.99,,,-99.99,685.559998,,2013-06-11 19:33:00,
2013-06-11 14:42:00,77.0,62.0,-100.00,West,270,4.0,-999.0,60,-99.99,,,-99.99,685.559998,,2013-06-11 19:42:00,
2013-06-11 14:53:00,77.0,62.0,-100.00,West,270,4.0,-999.0,60,-99.99,,,-99.99,685.559998,,2013-06-11 19:53:00,
2013-06-11 15:00:00,78.0,61.0,-100.00,WSW,247,4.0,-999.0,56,-99.99,,,-99.99,760.960022,,2013-06-11 20:00:00,
2013-06-11 15:32:00,78.0,61.0,-100.00,WSW,247,4.0,-999.0,56,-99.99,,,-99.99,760.960022,,2013-06-11 20:32:00,
2013-06-11 15:42:00,78.0,61.0,-100.00,WSW,247,4.0,-999.0,56,-99.99,,,-99.99,760.960022,,2013-06-11 20:42:00,
2013-06-11 15:52:00,78.0,61.0,-100.00,WSW,247,4.0,-999.0,56,-99.99,,,-99.99,760.960022,,2013-06-11 20:52:00,
2013-06-11 16:00:00,79.0,62.0,-100.00,West,270,4.0,-999.0,55,-99.99,,,-99.99,712.239990,,2013-06-11 21:00:00,
2013-06-11 17:00:00,80.0,61.0,-100.00,WSW,247,4.0,-999.0,51,-99.99,,,-99.99,606.679993,,2013-06-11 22:00:00,
2013-06-11 17:33:00,80.0,61.0,-100.00,WSW,247,4.0,-999.0,51,-99.99,,,-99.99,606.679993,,2013-06-11 22:33:00,
2013-06-11 17:42:00,80.0,61.0,-100.00,WSW,247,4.0,-999.0,51,-99.99,,,-99.99,606.679993,,2013-06-11 22:42:00,
2013-06-11 17:52:00,80.0,61.0,-100.00,WSW,247,4.0,-999.0,51,-99.99,,,-99.99,606.679993,,2013-06-11 22:52:00,
2013-06-11 18:00:00,79.0,60.0,-100.00,WSW,247,4.0,-999.0,52,-99.99,,,-99.99,382.799988,,2013-06-11 23:00:00,
2013-06-11 18:32:00,79.0,60.0,-100.00,WSW,247,4.0,-999.0,52,-99.99,,,-99.99,382.799988,,2013-06-11 23:32:00,
2013-06-11 18:42:00,79.0,60.0,-100.00,WSW,247,4.0,-999.0,52,-99.99,,,-99.99,382.799988,,2013-06-11 23:42:00,
2013-06-11 18:52:00,79.0,60.0,-100.00,WSW,247,4.0,-999.0,52,-99.99,,,-99.99,382.799988,,2013-06-11 23:52:00,
2013-06-11 20:00:00,75.0,60.0,-100.00,SW,225,2.0,-999.0,59,-99.99,,,-99.99,35.959999,,2013-06-12 01:00:00,
2013-06-11 20:32:00,75.0,60.0,-100.00,SW,225,2.0,-999.0,59,-99.99,,,-99.99,35.959999,,2013-06-12 01:32:00,
2013-06-11 20:42:00,75.0,60.0,-100.00,SW,225,2.0,-999.0,59,-99.99,,,-99.99,35.959999,,2013-06-12 01:42:00,
2013-06-11 20:52:00,75.0,60.0,-100.00,SW,225,2.0,-999.0,59,-99.99,,,-99.99,35.959999,,2013-06-12 01:52:00,
2013-06-11 21:00:00,69.0,60.0,-100.00,WSW,247,1.0,-999.0,72,-99.99,,,-99.99,6.960000,,2013-06-12 02:00:00,
2013-06-11 21:32:00,69.0,60.0,-100.00,WSW,247,1.0,-999.0,72,-99.99,,,-99.99,6.960000,,2013-06-12 02:32:00,
2013-06-11 21:42:00,69.0,60.0,-100.00,WSW,247,1.0,-999.0,72,-99.99,,,-99.99,6.960000,,2013-06-12 02:42:00,
2013-06-11 21:52:00,69.0,60.0,-100.00,WSW,247,1.0,-999.0,72,-99.99,,,-99.99,6.960000,,2013-06-12 02:52:00,
2013-06-11 22:00:00,64.0,58.0,-100.00,SE,135,1.0,-999.0,79,-99.99,,,-99.99,0.000000,,2013-06-12 03:00:00,
2013-06-11 23:00:00,57.0,52.0,-100.00,NE,45,1.0,-999.0,84,-99.99,,,-99.99,0.000000,,2013-06-12 04:00:00,
2013-06-11 23:34:00,57.0,52.0,-100.00,NE,45,1.0,-999.0,84,-99.99,,,-99.99,0.000000,,2013-06-12 04:34:00,
2013-06-11 23:42:00,57.0,52.0,-100.00,NE,45,1.0,-999.0,84,-99.99,,,-99.99,0.000000,,2013-06-12 04:42:00,
2013-06-11 23:53:00,57.0,52.0,-100.00,NE,45,1.0,-999.0,84,-99.99,,,-99.99,0.000000,,2013-06-12 04:53:00,